createdAt,value
2022-07-30T00:01:20.527Z,7.28
2022-07-30T00:03:49.001Z,8.50
2022-07-30T00:06:20.449Z,5.85
2022-07-30T00:08:48.952Z,8.07
2022-07-30T00:11:17.338Z,5.82
2022-07-30T00:13:45.688Z,6.30
2022-07-30T00:16:14.492Z,9.48
2022-07-30T00:18:43.081Z,6.03
2022-07-30T00:21:11.490Z,6.68
2022-07-30T00:23:51.076Z,8.35
2022-07-30T00:26:30.544Z,6.30
2022-07-30T00:28:58.938Z,7.22
2022-07-30T00:31:27.529Z,7.60
2022-07-30T00:33:56.018Z,7.32
2022-07-30T00:36:24.696Z,6.28
2022-07-30T00:38:53.396Z,6.95
2022-07-30T00:41:23.580Z,5.18
2022-07-30T00:43:52.567Z,5.40
2022-07-30T00:46:21.054Z,6.32
2022-07-30T00:48:49.598Z,6.38
2022-07-30T00:51:18.072Z,5.78
2022-07-30T00:53:46.485Z,4.90
2022-07-30T00:56:15.746Z,8.70
2022-07-30T00:58:45.544Z,6.60
2022-07-30T01:01:14.367Z,7.57
2022-07-30T01:03:42.865Z,10.02
2022-07-30T01:06:14.188Z,5.30
2022-07-30T01:08:43.449Z,5.68
2022-07-30T01:11:12.161Z,7.78
2022-07-30T01:13:45.095Z,8.57
2022-07-30T01:16:14.869Z,7.85
2022-07-30T01:19:06.323Z,8.05
2022-07-30T01:21:39.249Z,5.63
2022-07-30T01:24:31.702Z,7.38
2022-07-30T01:27:01.398Z,5.70
2022-07-30T01:29:32.806Z,7.22
2022-07-30T01:32:03.115Z,6.43
2022-07-30T01:34:34.423Z,7.85
2022-07-30T01:37:05.403Z,6.10
2022-07-30T01:39:34.197Z,8.45
2022-07-30T01:42:05.455Z,7.30
2022-07-30T01:44:34.996Z,5.47
2022-07-30T01:47:04.806Z,6.45
2022-07-30T01:52:04.713Z,6.32
2022-07-30T01:54:34.064Z,6.20
2022-07-30T01:57:04.567Z,6.50
2022-07-30T01:59:35.600Z,6.32
2022-07-30T02:02:04.073Z,7.07
2022-07-30T02:04:34.514Z,9.15
2022-07-30T02:07:10.604Z,9.50
2022-07-30T02:09:51.817Z,7.60
2022-07-30T02:12:29.330Z,5.97
2022-07-30T02:15:17.820Z,5.95
2022-07-30T02:17:59.591Z,6.10
2022-07-30T02:20:29.936Z,6.93
2022-07-30T02:23:05.826Z,6.07
2022-07-30T02:25:38.739Z,5.97
2022-07-30T02:28:13.099Z,5.60
2022-07-30T02:30:56.695Z,10.45
2022-07-30T02:33:37.692Z,7.57
2022-07-30T02:36:19.529Z,6.68
2022-07-30T02:38:51.622Z,6.88
2022-07-30T02:41:23.693Z,6.32
2022-07-30T02:43:54.869Z,6.32
2022-07-30T02:46:25.755Z,6.47
2022-07-30T02:49:22.605Z,8.27
2022-07-30T02:51:52.129Z,7.68
2022-07-30T02:54:25.285Z,7.72
2022-07-30T02:56:57.392Z,7.18
2022-07-30T02:59:29.419Z,7.88
2022-07-30T03:01:59.729Z,7.93
2022-07-30T03:04:28.907Z,5.95
2022-07-30T03:06:59.914Z,7.22
2022-07-30T03:09:52.471Z,6.60
2022-07-30T03:12:20.743Z,8.52
2022-07-30T03:14:49.516Z,10.27
2022-07-30T03:17:19.905Z,7.57
2022-07-30T03:19:49.662Z,7.90
2022-07-30T03:22:20.293Z,7.00
2022-07-30T03:27:18.847Z,7.78
2022-07-30T03:29:48.842Z,10.32
2022-07-30T03:32:17.396Z,8.77
2022-07-30T03:34:48.038Z,13.05
2022-07-30T03:37:17.066Z,8.93
2022-07-30T03:39:46.117Z,8.50
2022-07-30T03:42:16.011Z,10.65
2022-07-30T03:44:45.853Z,8.68
2022-07-30T03:47:16.557Z,10.80
2022-07-30T03:49:49.437Z,8.52
2022-07-30T03:52:20.242Z,10.52
2022-07-30T03:57:20.701Z,9.63
2022-07-30T03:59:51.814Z,9.65
2022-07-30T04:02:22.511Z,8.38
2022-07-30T04:05:03.219Z,8.73
2022-07-30T04:07:31.608Z,9.27
2022-07-30T04:10:00.162Z,12.05
2022-07-30T04:13:07.788Z,13.75
2022-07-30T04:16:40.509Z,13.80
2022-07-30T04:18:42.854Z,10.77
2022-07-30T04:21:16.202Z,10.50
2022-07-30T04:24:04.445Z,11.55
2022-07-30T04:26:36.354Z,10.20
2022-07-30T04:29:08.386Z,12.45
2022-07-30T04:31:41.088Z,11.48
2022-07-30T04:34:52.915Z,10.15
2022-07-30T04:37:41.378Z,12.10
2022-07-30T04:40:10.353Z,10.15
2022-07-30T04:42:38.790Z,11.77
2022-07-30T04:45:11.799Z,10.65
2022-07-30T04:47:54.032Z,13.45
2022-07-30T04:50:46.959Z,13.27
2022-07-30T04:53:19.836Z,12.77
2022-07-30T04:55:55.315Z,12.30
2022-07-30T04:58:28.511Z,10.70
2022-07-30T05:00:59.097Z,11.68
2022-07-30T05:03:31.819Z,10.35
2022-07-30T05:06:01.254Z,8.38
2022-07-30T05:08:33.117Z,7.65
2022-07-30T05:11:05.790Z,9.25
2022-07-30T05:13:38.253Z,12.07
2022-07-30T05:16:10.611Z,9.90
2022-07-30T05:18:39.175Z,7.80
2022-07-30T05:21:08.097Z,8.15
2022-07-30T05:23:38.845Z,7.47
2022-07-30T05:26:20.090Z,9.38
2022-07-30T05:28:54.994Z,7.35
2022-07-30T05:31:31.229Z,7.55
2022-07-30T05:34:03.998Z,9.30
2022-07-30T05:36:45.118Z,11.60
2022-07-30T05:39:16.645Z,7.05
2022-07-30T05:41:55.089Z,10.82
2022-07-30T05:44:36.285Z,7.68
2022-07-30T05:47:04.789Z,9.40
2022-07-30T05:49:33.846Z,9.25
2022-07-30T05:52:08.878Z,9.02
2022-07-30T05:54:37.263Z,10.35
2022-07-30T05:57:05.801Z,9.13
2022-07-30T05:59:36.440Z,12.65
2022-07-30T06:02:06.763Z,7.85
2022-07-30T06:04:53.564Z,13.27
2022-07-30T06:07:22.943Z,11.43
2022-07-30T06:09:53.199Z,11.52
2022-07-30T06:12:22.186Z,9.23
2022-07-30T06:14:50.692Z,12.90
2022-07-30T06:17:25.994Z,8.75
2022-07-30T06:20:08.321Z,10.73
2022-07-30T06:22:49.432Z,8.65
2022-07-30T06:25:25.132Z,15.70
2022-07-30T06:27:53.528Z,9.95
2022-07-30T06:30:31.411Z,11.27
2022-07-30T06:33:00.978Z,13.27
2022-07-30T06:35:29.495Z,16.08
2022-07-30T06:38:00.618Z,10.25
2022-07-30T06:40:41.477Z,9.38
2022-07-30T06:43:19.188Z,11.85
2022-07-30T06:46:22.617Z,15.00
2022-07-30T06:48:53.841Z,8.85
2022-07-30T06:51:22.424Z,10.63
2022-07-30T06:53:50.710Z,9.73
2022-07-30T06:56:39.061Z,11.02
2022-07-30T06:59:09.354Z,11.95
2022-07-30T07:02:07.139Z,12.50
2022-07-30T07:04:46.906Z,10.35
2022-07-30T07:07:26.858Z,20.60
2022-07-30T07:10:05.172Z,12.90
2022-07-30T07:12:42.351Z,12.68
2022-07-30T07:15:10.862Z,12.55
2022-07-30T07:17:41.876Z,16.80
2022-07-30T07:20:28.977Z,13.15
2022-07-30T07:23:09.395Z,11.55
2022-07-30T07:25:41.619Z,11.02
2022-07-30T07:28:13.409Z,9.30
2022-07-30T07:30:45.557Z,8.00
2022-07-30T07:33:15.561Z,11.13
2022-07-30T07:35:49.368Z,13.23
2022-07-30T07:38:26.641Z,11.40
2022-07-30T07:40:56.513Z,13.60
2022-07-30T07:43:25.315Z,16.88
2022-07-30T07:45:56.993Z,11.40
2022-07-30T07:48:28.155Z,17.63
2022-07-30T07:51:04.059Z,13.18
2022-07-30T07:53:38.239Z,9.30
2022-07-30T07:56:08.611Z,11.15
2022-07-30T07:58:38.305Z,15.15
2022-07-30T08:01:14.129Z,11.57
2022-07-30T08:04:01.278Z,11.65
2022-07-30T08:06:52.193Z,11.15
2022-07-30T08:09:44.340Z,11.05
2022-07-30T08:12:28.101Z,11.32
2022-07-30T08:15:25.659Z,10.32
2022-07-30T08:18:26.093Z,9.55
2022-07-30T08:21:11.194Z,11.35
2022-07-30T08:23:42.676Z,9.88
2022-07-30T08:26:12.068Z,12.63
2022-07-30T08:28:40.627Z,12.52
2022-07-30T08:31:09.680Z,15.10
2022-07-30T08:33:38.178Z,10.32
2022-07-30T08:36:09.756Z,10.05
2022-07-30T08:38:39.989Z,11.90
2022-07-30T08:41:09.487Z,9.20
2022-07-30T08:43:38.101Z,8.38
2022-07-30T08:46:10.373Z,9.90
2022-07-30T08:51:19.883Z,10.70
2022-07-30T08:54:14.197Z,9.43
2022-07-30T08:56:44.797Z,11.00
2022-07-30T08:59:13.475Z,8.47
2022-07-30T09:01:41.923Z,6.80
2022-07-30T09:04:10.570Z,6.15
2022-07-30T09:06:40.976Z,9.98
2022-07-30T09:09:11.603Z,10.43
2022-07-30T09:11:42.564Z,7.57
2022-07-30T09:14:13.421Z,7.55
2022-07-30T09:16:43.779Z,8.18
2022-07-30T09:21:42.972Z,8.60
2022-07-30T09:24:24.762Z,11.07
2022-07-30T09:27:22.325Z,8.00
2022-07-30T09:29:59.307Z,11.93
2022-07-30T09:32:56.662Z,8.60
2022-07-30T09:35:43.759Z,12.15
2022-07-30T09:38:13.047Z,6.95
2022-07-30T09:41:12.318Z,17.10
2022-07-30T09:43:54.274Z,9.43
2022-07-30T09:46:47.145Z,7.70
2022-07-30T09:49:29.207Z,7.47
2022-07-30T09:51:58.599Z,5.97
2022-07-30T09:54:51.548Z,8.38
2022-07-30T09:57:27.285Z,6.50
2022-07-30T10:00:23.480Z,13.07
2022-07-30T10:03:22.005Z,7.28
2022-07-30T10:06:35.703Z,11.93
2022-07-30T10:09:25.858Z,9.02
2022-07-30T10:12:03.990Z,5.45
2022-07-30T10:14:42.522Z,6.07
2022-07-30T10:17:18.121Z,5.85
2022-07-30T10:20:08.824Z,9.68
2022-07-30T10:22:58.241Z,9.10
2022-07-30T10:25:49.509Z,5.00
2022-07-30T10:28:43.542Z,7.28
2022-07-30T10:31:48.200Z,5.32
2022-07-30T10:34:02.199Z,5.82
2022-07-30T10:36:31.744Z,6.60
2022-07-30T10:39:02.017Z,7.60
2022-07-30T10:41:42.610Z,7.10
2022-07-30T10:44:43.665Z,6.22
2022-07-30T10:47:16.340Z,6.05
2022-07-30T10:50:15.778Z,4.40
2022-07-30T10:52:58.394Z,8.53
2022-07-30T10:55:38.862Z,5.30
2022-07-30T10:58:15.839Z,9.23
2022-07-30T11:00:54.575Z,6.03
2022-07-30T11:03:40.685Z,7.57
2022-07-30T11:06:16.069Z,6.97
2022-07-30T11:08:48.060Z,34.55
2022-07-30T11:11:59.060Z,7.07
2022-07-30T11:14:10.924Z,6.22
2022-07-30T11:16:41.352Z,5.35
2022-07-30T11:19:55.945Z,5.22
2022-07-30T11:22:38.489Z,4.18
2022-07-30T11:25:12.699Z,4.93
2022-07-30T11:27:45.707Z,4.65
2022-07-30T11:30:18.130Z,6.13
2022-07-30T11:32:49.764Z,4.20
2022-07-30T11:35:26.109Z,8.95
2022-07-30T11:38:15.696Z,8.15
2022-07-30T11:40:48.659Z,6.38
2022-07-30T11:43:35.766Z,4.43
2022-07-30T11:46:10.265Z,6.82
2022-07-30T11:48:41.780Z,7.93
2022-07-30T11:51:10.433Z,8.15
2022-07-30T11:53:39.238Z,5.43
2022-07-30T11:56:09.455Z,4.75
2022-07-30T11:58:44.792Z,7.18
2022-07-30T12:01:16.169Z,4.13
2022-07-30T12:03:45.941Z,9.02
2022-07-30T12:06:18.209Z,8.52
2022-07-30T12:08:49.375Z,6.50
2022-07-30T12:11:17.731Z,6.30
2022-07-30T12:13:56.223Z,8.30
2022-07-30T12:16:25.409Z,6.38
2022-07-30T12:18:54.447Z,5.75
2022-07-30T12:21:24.817Z,6.80
2022-07-30T12:26:34.222Z,4.15
2022-07-30T12:29:10.105Z,6.43
2022-07-30T12:31:40.249Z,10.48
2022-07-30T12:34:23.138Z,6.03
2022-07-30T12:36:52.001Z,7.85
2022-07-30T12:39:23.967Z,6.80
2022-07-30T12:41:58.093Z,9.60
2022-07-30T12:44:41.767Z,5.82
2022-07-30T12:47:20.876Z,11.90
2022-07-30T12:49:53.144Z,7.68
2022-07-30T12:52:34.545Z,6.82
2022-07-30T12:55:11.330Z,6.68
2022-07-30T12:57:58.115Z,5.20
2022-07-30T13:00:28.080Z,7.15
2022-07-30T13:02:56.994Z,4.28
2022-07-30T13:05:45.159Z,6.22
2022-07-30T13:08:13.828Z,3.83
2022-07-30T13:11:01.497Z,3.47
2022-07-30T13:13:31.169Z,4.82
2022-07-30T13:16:05.115Z,4.55
2022-07-30T13:18:34.677Z,3.72
2022-07-30T13:21:05.284Z,4.07
2022-07-30T13:23:34.885Z,4.95
2022-07-30T13:26:03.554Z,5.50
2022-07-30T13:28:33.505Z,3.80
2022-07-30T13:31:02.365Z,2.38
2022-07-30T13:33:30.793Z,5.28
2022-07-30T13:36:00.022Z,6.40
2022-07-30T13:38:28.638Z,3.13
2022-07-30T13:41:02.155Z,3.58
2022-07-30T13:43:33.865Z,4.93
2022-07-30T13:46:03.558Z,8.23
2022-07-30T13:48:32.956Z,6.60
2022-07-30T13:51:02.614Z,7.80
2022-07-30T13:53:31.544Z,7.25
2022-07-30T13:56:03.613Z,5.88
2022-07-30T13:58:36.109Z,6.07
2022-07-30T14:01:07.184Z,5.22
2022-07-30T14:03:35.878Z,6.70
2022-07-30T14:06:11.027Z,10.30
2022-07-30T14:08:39.910Z,3.50
2022-07-30T14:11:08.422Z,4.22
2022-07-30T14:13:36.901Z,11.45
2022-07-30T14:16:22.654Z,7.20
2022-07-30T14:18:57.485Z,5.55
2022-07-30T14:21:25.905Z,7.15
2022-07-30T14:23:54.992Z,5.50
2022-07-30T14:26:23.478Z,5.53
2022-07-30T14:28:51.773Z,8.25
2022-07-30T14:31:20.240Z,6.38
2022-07-30T14:33:48.521Z,8.38
2022-07-30T14:36:33.092Z,3.97
2022-07-30T14:39:04.976Z,5.00
2022-07-30T14:41:34.861Z,6.07
2022-07-30T14:44:03.508Z,3.22
2022-07-30T14:46:32.258Z,4.95
2022-07-30T14:49:00.625Z,6.07
2022-07-30T14:51:33.906Z,5.50
2022-07-30T14:54:03.293Z,3.03
2022-07-30T14:56:34.627Z,6.00
2022-07-30T14:59:02.948Z,5.25
2022-07-30T15:01:31.792Z,2.85
2022-07-30T15:04:00.265Z,2.13
2022-07-30T15:06:29.128Z,3.47
2022-07-30T15:08:57.474Z,3.22
2022-07-30T15:11:25.865Z,3.88
2022-07-30T15:13:54.251Z,7.65
2022-07-30T15:16:23.117Z,2.47
2022-07-30T15:18:51.563Z,2.75
2022-07-30T15:21:19.969Z,3.67
2022-07-30T15:23:48.442Z,1.88
2022-07-30T15:26:17.560Z,3.72
2022-07-30T15:28:45.981Z,2.50
2022-07-30T15:31:14.338Z,4.30
2022-07-30T15:33:44.853Z,3.17
2022-07-30T15:36:13.355Z,1.55
2022-07-30T15:38:42.101Z,3.42
2022-07-30T15:41:13.644Z,3.75
2022-07-30T15:43:42.330Z,5.43
2022-07-30T15:46:10.714Z,4.88
2022-07-30T15:48:39.317Z,2.13
2022-07-30T15:51:08.404Z,2.72
2022-07-30T15:53:37.179Z,4.53
2022-07-30T15:56:05.984Z,1.98
2022-07-30T15:58:34.225Z,4.68
2022-07-30T16:01:05.333Z,4.00
2022-07-30T16:03:33.700Z,2.22
2022-07-30T16:06:01.945Z,1.85
2022-07-30T16:08:30.590Z,3.00
2022-07-30T16:10:58.946Z,4.22
2022-07-30T16:13:27.467Z,1.55
2022-07-30T16:15:55.755Z,2.50
2022-07-30T16:18:24.096Z,3.47
2022-07-30T16:20:52.437Z,1.85
2022-07-30T16:23:21.667Z,2.40
2022-07-30T16:25:50.299Z,4.22
2022-07-30T16:28:19.189Z,1.88
2022-07-30T16:30:50.649Z,4.03
2022-07-30T16:33:21.049Z,1.67
2022-07-30T16:35:51.381Z,2.00
2022-07-30T16:38:22.891Z,3.95
2022-07-30T16:40:51.270Z,3.00
2022-07-30T16:43:20.327Z,1.67
2022-07-30T16:45:49.173Z,2.13
2022-07-30T16:48:17.753Z,1.27
2022-07-30T16:50:46.103Z,4.43
2022-07-30T16:53:14.962Z,5.13
2022-07-30T16:55:44.763Z,2.40
2022-07-30T16:58:13.206Z,2.58
2022-07-30T17:00:42.033Z,2.25
2022-07-30T17:03:12.073Z,3.28
2022-07-30T17:05:48.715Z,1.20
2022-07-30T17:08:17.680Z,4.40
2022-07-30T17:10:46.649Z,4.63
2022-07-30T17:13:16.689Z,3.15
2022-07-30T17:15:46.691Z,2.58
2022-07-30T17:18:15.930Z,1.48
2022-07-30T17:20:45.085Z,1.50
2022-07-30T17:23:13.630Z,3.95
2022-07-30T17:25:42.055Z,1.55
2022-07-30T17:28:10.794Z,2.35
2022-07-30T17:30:39.043Z,2.00
2022-07-30T17:33:07.430Z,1.35
2022-07-30T17:35:35.756Z,2.13
2022-07-30T17:38:04.600Z,2.00
2022-07-30T17:40:32.991Z,4.25
2022-07-30T17:43:05.604Z,1.67
2022-07-30T17:45:35.799Z,2.50
2022-07-30T17:48:05.269Z,5.85
2022-07-30T17:50:34.750Z,5.93
2022-07-30T17:53:04.529Z,3.13
2022-07-30T17:55:35.327Z,1.95
2022-07-30T17:58:04.621Z,3.30
2022-07-30T18:00:34.835Z,2.08
2022-07-30T18:03:03.704Z,3.75
2022-07-30T18:05:32.170Z,6.70
2022-07-30T18:08:00.660Z,1.77
2022-07-30T18:10:31.814Z,4.30
2022-07-30T18:13:19.224Z,3.70
2022-07-30T18:15:48.751Z,3.55
2022-07-30T18:18:17.050Z,1.48
2022-07-30T18:20:48.544Z,5.57
2022-07-30T18:23:19.266Z,4.50
2022-07-30T18:25:51.422Z,1.90
2022-07-30T18:28:20.540Z,4.72
2022-07-30T18:30:48.970Z,3.55
2022-07-30T18:33:17.620Z,1.60
2022-07-30T18:35:45.975Z,3.22
2022-07-30T18:38:15.104Z,3.97
2022-07-30T18:40:44.922Z,1.60
2022-07-30T18:43:13.229Z,2.22
2022-07-30T18:45:41.522Z,3.88
2022-07-30T18:48:09.892Z,1.63
2022-07-30T18:50:38.257Z,5.63
2022-07-30T18:53:15.473Z,3.47
2022-07-30T18:55:45.074Z,3.40
2022-07-30T18:58:13.417Z,3.30
2022-07-30T19:00:43.994Z,2.63
2022-07-30T19:03:17.603Z,2.92
2022-07-30T19:05:49.431Z,3.25
2022-07-30T19:08:17.974Z,1.60
2022-07-30T19:10:46.351Z,4.93
2022-07-30T19:13:14.708Z,6.05
2022-07-30T19:15:43.030Z,2.08
2022-07-30T19:18:11.663Z,3.22
2022-07-30T19:20:39.979Z,4.85
2022-07-30T19:23:08.474Z,2.13
2022-07-30T19:25:37.046Z,3.45
2022-07-30T19:28:05.680Z,1.83
2022-07-30T19:30:34.656Z,4.32
2022-07-30T19:33:14.812Z,2.13
2022-07-30T19:35:44.353Z,1.83
2022-07-30T19:38:21.375Z,2.35
2022-07-30T19:40:50.534Z,4.45
2022-07-30T19:43:23.810Z,2.60
2022-07-30T19:45:52.647Z,2.67
2022-07-30T19:48:28.602Z,3.60
2022-07-30T19:51:00.772Z,3.67
2022-07-30T19:53:31.483Z,1.38
2022-07-30T19:56:08.380Z,4.43
2022-07-30T19:58:40.301Z,2.35
2022-07-30T20:01:11.149Z,3.80
2022-07-30T20:03:40.465Z,1.67
2022-07-30T20:06:14.821Z,2.92
2022-07-30T20:08:44.567Z,3.95
2022-07-30T20:11:20.821Z,4.35
2022-07-30T20:13:49.861Z,5.90
2022-07-30T20:16:18.219Z,5.97
2022-07-30T20:18:48.214Z,5.55
2022-07-30T20:21:21.093Z,6.22
2022-07-30T20:24:11.867Z,1.50
2022-07-30T20:26:40.422Z,8.15
2022-07-30T20:29:15.678Z,3.58
2022-07-30T20:31:49.643Z,2.08
2022-07-30T20:34:23.391Z,5.60
2022-07-30T20:36:52.220Z,2.63
2022-07-30T20:39:23.628Z,3.47
2022-07-30T20:42:07.697Z,6.10
2022-07-30T20:44:37.706Z,2.03
2022-07-30T20:47:08.412Z,5.78
2022-07-30T20:49:38.076Z,2.38
2022-07-30T20:52:09.790Z,4.53
2022-07-30T20:54:45.078Z,7.75
2022-07-30T20:57:15.907Z,5.50
2022-07-30T20:59:48.682Z,3.75
2022-07-30T21:02:17.133Z,6.95
2022-07-30T21:04:59.716Z,4.28
2022-07-30T21:07:36.661Z,6.10
2022-07-30T21:10:07.351Z,3.70
2022-07-30T21:12:36.603Z,3.90
2022-07-30T21:15:22.963Z,8.45
2022-07-30T21:17:52.278Z,2.88
2022-07-30T21:20:26.604Z,5.85
2022-07-30T21:23:02.213Z,7.72
2022-07-30T21:25:32.653Z,5.60
2022-07-30T21:28:02.941Z,5.65
2022-07-30T21:30:32.714Z,4.05
2022-07-30T21:33:01.402Z,5.37
2022-07-30T21:35:32.097Z,5.65
2022-07-30T21:38:00.753Z,4.05
2022-07-30T21:40:29.908Z,8.88
2022-07-30T21:42:58.212Z,4.30
2022-07-30T21:45:26.977Z,5.90
2022-07-30T21:48:07.570Z,4.53
2022-07-30T21:50:38.059Z,3.47
2022-07-30T21:55:52.453Z,4.63
2022-07-30T21:58:25.724Z,4.43
2022-07-30T22:00:55.563Z,5.80
2022-07-30T22:04:02.147Z,4.75
2022-07-30T22:06:12.889Z,6.20
2022-07-30T22:08:41.397Z,5.63
2022-07-30T22:11:18.955Z,7.90
2022-07-30T22:13:53.678Z,6.72
2022-07-30T22:16:22.699Z,3.88
2022-07-30T22:18:51.673Z,5.82
2022-07-30T22:21:20.607Z,4.68
2022-07-30T22:23:54.930Z,4.13
2022-07-30T22:26:26.900Z,4.43
2022-07-30T22:28:55.455Z,5.07
2022-07-30T22:31:23.782Z,4.90
2022-07-30T22:33:59.376Z,3.40
2022-07-30T22:36:29.001Z,3.93
2022-07-30T22:38:58.529Z,9.73
2022-07-30T22:41:45.573Z,5.00
2022-07-30T22:44:13.909Z,3.05
2022-07-30T22:46:43.727Z,9.45
2022-07-30T22:49:23.609Z,4.20
2022-07-30T22:52:01.688Z,4.00
2022-07-30T22:54:37.555Z,6.72
2022-07-30T22:57:05.915Z,5.45
2022-07-30T22:59:58.103Z,8.13
2022-07-30T23:02:22.659Z,6.28
2022-07-30T23:04:51.759Z,7.13
2022-07-30T23:07:20.027Z,7.38
2022-07-30T23:09:51.978Z,8.95
2022-07-30T23:12:20.577Z,8.43
2022-07-30T23:14:48.930Z,4.65
2022-07-30T23:17:17.412Z,5.20
2022-07-30T23:19:45.987Z,3.92
2022-07-30T23:22:14.640Z,3.63
2022-07-30T23:24:43.054Z,3.83
2022-07-30T23:27:11.469Z,7.90
2022-07-30T23:29:39.805Z,3.70
2022-07-30T23:32:08.049Z,6.80
2022-07-30T23:34:36.372Z,4.55
2022-07-30T23:37:05.929Z,6.90
2022-07-30T23:39:34.521Z,4.18
2022-07-30T23:42:02.857Z,3.83
2022-07-30T23:44:34.326Z,4.00
2022-07-30T23:47:05.690Z,3.38
2022-07-30T23:49:34.199Z,4.53
2022-07-30T23:52:03.055Z,4.00
2022-07-30T23:54:31.816Z,3.72
2022-07-30T23:57:00.596Z,4.00
2022-07-30T23:59:36.906Z,5.90
